createdAt,value
2023-07-02T00:00:44.115Z,17.90
2023-07-02T00:03:13.618Z,17.80
2023-07-02T00:05:41.784Z,17.80
2023-07-02T00:08:10.010Z,17.80
2023-07-02T00:10:38.210Z,17.90
2023-07-02T00:13:06.454Z,17.70
2023-07-02T00:15:34.508Z,17.80
2023-07-02T00:18:02.808Z,17.80
2023-07-02T00:20:35.987Z,17.80
2023-07-02T00:23:04.134Z,17.80
2023-07-02T00:25:32.386Z,17.80
2023-07-02T00:28:00.490Z,17.70
2023-07-02T00:30:28.794Z,17.70
2023-07-02T00:32:57.250Z,17.80
2023-07-02T00:35:25.379Z,17.80
2023-07-02T00:37:54.866Z,17.80
2023-07-02T00:40:23.186Z,17.70
2023-07-02T00:42:51.324Z,17.60
2023-07-02T00:45:19.520Z,17.70
2023-07-02T00:47:47.766Z,17.70
2023-07-02T00:50:16.533Z,17.60
2023-07-02T00:52:44.665Z,17.70
2023-07-02T00:55:14.197Z,17.50
2023-07-02T00:57:42.377Z,17.60
2023-07-02T01:00:11.610Z,17.60
2023-07-02T01:02:39.796Z,17.50
2023-07-02T01:05:08.228Z,17.60
2023-07-02T01:07:36.437Z,17.60
2023-07-02T01:10:04.820Z,17.50
2023-07-02T01:12:35.032Z,17.60
2023-07-02T01:15:07.088Z,17.50
2023-07-02T01:17:42.725Z,17.50
2023-07-02T01:20:14.559Z,17.50
2023-07-02T01:22:42.989Z,17.50
2023-07-02T01:25:11.470Z,17.60
2023-07-02T01:27:40.264Z,17.50
2023-07-02T01:30:10.590Z,17.60
2023-07-02T01:32:40.135Z,17.50
2023-07-02T01:35:09.330Z,17.50
2023-07-02T01:37:39.687Z,17.50
2023-07-02T01:40:09.471Z,17.50
2023-07-02T01:42:37.744Z,17.60
2023-07-02T01:45:06.538Z,17.50
2023-07-02T01:47:34.760Z,17.60
2023-07-02T01:50:06.072Z,17.60
2023-07-02T01:52:34.881Z,17.70
2023-07-02T01:55:05.206Z,17.60
2023-07-02T01:57:33.410Z,17.60
2023-07-02T02:00:01.641Z,17.60
2023-07-02T02:02:29.814Z,17.60
2023-07-02T02:04:58.840Z,17.60
2023-07-02T02:07:27.502Z,17.60
2023-07-02T02:09:55.740Z,17.60
2023-07-02T02:12:25.406Z,17.60
2023-07-02T02:14:53.525Z,17.60
2023-07-02T02:17:21.875Z,17.60
2023-07-02T02:19:50.014Z,17.60
2023-07-02T02:22:18.394Z,17.60
2023-07-02T02:24:46.573Z,17.60
2023-07-02T02:27:14.748Z,17.60
2023-07-02T02:29:44.292Z,17.50
2023-07-02T02:32:12.396Z,17.60
2023-07-02T02:34:40.574Z,17.50
2023-07-02T02:37:09.148Z,17.50
2023-07-02T02:39:37.287Z,17.50
2023-07-02T02:42:06.040Z,17.40
2023-07-02T02:44:34.510Z,17.40
2023-07-02T02:47:06.081Z,17.40
2023-07-02T02:49:34.343Z,17.40
2023-07-02T02:52:02.540Z,17.40
2023-07-02T02:54:30.709Z,17.20
2023-07-02T02:56:58.951Z,17.30
2023-07-02T02:59:27.132Z,17.20
2023-07-02T03:01:55.314Z,17.30
2023-07-02T03:04:26.222Z,17.20
2023-07-02T03:06:54.981Z,17.20
2023-07-02T03:09:23.243Z,17.30
2023-07-02T03:11:51.441Z,17.20
2023-07-02T03:14:19.882Z,17.10
2023-07-02T03:16:48.349Z,17.00
2023-07-02T03:19:17.172Z,17.10
2023-07-02T03:21:46.872Z,17.00
2023-07-02T03:24:15.126Z,17.10
2023-07-02T03:26:43.595Z,17.10
2023-07-02T03:29:12.326Z,17.10
2023-07-02T03:31:40.748Z,17.10
2023-07-02T03:34:10.989Z,17.10
2023-07-02T03:36:39.536Z,17.10
2023-07-02T03:39:10.787Z,17.10
2023-07-02T03:41:39.348Z,17.00
2023-07-02T03:44:07.798Z,17.10
2023-07-02T03:46:36.239Z,17.00
2023-07-02T03:49:05.230Z,17.00
2023-07-02T03:51:33.726Z,17.00
2023-07-02T03:54:01.876Z,17.00
2023-07-02T03:56:31.407Z,17.00
2023-07-02T03:58:59.522Z,17.00
2023-07-02T04:01:27.673Z,17.00
2023-07-02T04:03:56.578Z,16.90
2023-07-02T04:06:25.090Z,17.00
2023-07-02T04:08:53.252Z,16.90
2023-07-02T04:11:21.391Z,16.90
2023-07-02T04:13:50.848Z,17.00
2023-07-02T04:16:19.149Z,17.00
2023-07-02T04:18:47.290Z,16.90
2023-07-02T04:21:15.438Z,17.00
2023-07-02T04:23:43.591Z,17.10
2023-07-02T04:26:41.710Z,17.00
2023-07-02T04:29:02.234Z,17.00
2023-07-02T04:31:30.470Z,17.00
2023-07-02T04:34:00.703Z,17.00
2023-07-02T04:36:29.699Z,17.00
2023-07-02T04:38:58.037Z,16.90
2023-07-02T04:41:26.230Z,17.00
2023-07-02T04:43:54.312Z,16.90
2023-07-02T04:46:24.298Z,17.10
2023-07-02T04:48:52.701Z,17.20
2023-07-02T04:51:22.427Z,17.20
2023-07-02T04:53:50.612Z,17.20
2023-07-02T04:56:18.847Z,17.10
2023-07-02T04:58:47.020Z,17.10
2023-07-02T05:01:15.235Z,17.20
2023-07-02T05:03:44.816Z,17.30
2023-07-02T05:06:12.944Z,17.30
2023-07-02T05:08:43.107Z,17.40
2023-07-02T05:11:11.502Z,17.40
2023-07-02T05:13:39.627Z,17.40
2023-07-02T05:16:08.078Z,17.50
2023-07-02T05:18:36.283Z,17.60
2023-07-02T05:21:05.964Z,17.50
2023-07-02T05:23:34.134Z,17.50
2023-07-02T05:26:02.343Z,17.60
2023-07-02T05:28:30.543Z,17.70
2023-07-02T05:30:58.626Z,17.60
2023-07-02T05:33:26.888Z,17.80
2023-07-02T05:35:55.094Z,17.80
2023-07-02T05:38:25.317Z,17.90
2023-07-02T05:40:53.535Z,17.90
2023-07-02T05:43:21.680Z,17.80
2023-07-02T05:45:49.840Z,18.00
2023-07-02T05:48:17.948Z,17.80
2023-07-02T05:50:47.777Z,18.00
2023-07-02T05:53:16.201Z,18.00
2023-07-02T05:55:46.000Z,18.00
2023-07-02T05:58:14.218Z,18.10
2023-07-02T06:00:43.004Z,18.20
2023-07-02T06:03:11.185Z,18.30
2023-07-02T06:05:39.564Z,18.50
2023-07-02T06:08:07.811Z,18.50
2023-07-02T06:10:36.024Z,18.50
2023-07-02T06:13:05.595Z,18.50
2023-07-02T06:15:33.796Z,18.60
2023-07-02T06:18:02.131Z,18.70
2023-07-02T06:20:30.344Z,19.00
2023-07-02T06:22:58.528Z,18.70
2023-07-02T06:25:26.658Z,18.60
2023-07-02T06:27:56.552Z,18.70
2023-07-02T06:30:26.225Z,18.80
2023-07-02T06:32:56.269Z,18.90
2023-07-02T06:35:24.597Z,18.80
2023-07-02T06:37:52.775Z,19.00
2023-07-02T06:40:23.584Z,19.20
2023-07-02T06:42:51.810Z,19.30
2023-07-02T06:45:20.046Z,19.60
2023-07-02T06:47:49.583Z,19.70
2023-07-02T06:50:17.782Z,19.90
2023-07-02T06:52:45.901Z,20.20
2023-07-02T06:55:14.022Z,20.30
2023-07-02T06:57:46.419Z,20.20
2023-07-02T07:00:15.920Z,20.20
2023-07-02T07:02:44.108Z,20.30
2023-07-02T07:05:14.151Z,19.90
2023-07-02T07:07:42.262Z,20.20
2023-07-02T07:10:10.868Z,20.20
2023-07-02T07:15:08.187Z,20.10
2023-07-02T07:17:36.445Z,20.00
2023-07-02T07:20:06.171Z,20.00
2023-07-02T07:22:35.959Z,20.40
2023-07-02T07:25:04.129Z,20.10
2023-07-02T07:27:32.270Z,20.30
2023-07-02T07:30:00.472Z,20.60
2023-07-02T07:32:28.684Z,20.80
2023-07-02T07:34:56.815Z,20.70
2023-07-02T07:37:26.265Z,20.60
2023-07-02T07:39:56.025Z,20.90
2023-07-02T07:42:24.171Z,20.90
2023-07-02T07:44:52.358Z,20.90
2023-07-02T07:47:20.552Z,20.80
2023-07-02T07:49:48.846Z,21.10
2023-07-02T07:52:17.005Z,21.10
2023-07-02T07:54:45.554Z,21.20
2023-07-02T07:57:15.177Z,20.60
2023-07-02T07:59:43.334Z,20.90
2023-07-02T08:02:11.633Z,21.00
2023-07-02T08:04:39.908Z,21.10
2023-07-02T08:07:10.228Z,21.10
2023-07-02T08:09:38.475Z,21.00
2023-07-02T08:12:07.284Z,20.80
2023-07-02T08:14:37.278Z,20.80
2023-07-02T08:17:05.972Z,21.20
2023-07-02T08:19:34.169Z,21.30
2023-07-02T08:22:02.321Z,21.10
2023-07-02T08:24:31.999Z,21.40
2023-07-02T08:27:00.415Z,21.70
2023-07-02T08:29:28.602Z,21.70
2023-07-02T08:31:58.215Z,22.10
2023-07-02T08:34:26.583Z,22.30
2023-07-02T08:36:54.845Z,22.40
2023-07-02T08:39:23.007Z,22.40
2023-07-02T08:41:51.252Z,22.60
2023-07-02T08:44:23.422Z,22.50
2023-07-02T08:46:54.502Z,22.60
2023-07-02T08:51:52.911Z,22.90
2023-07-02T08:54:21.161Z,22.50
2023-07-02T08:56:49.626Z,22.50
2023-07-02T08:59:17.928Z,22.90
2023-07-02T09:01:50.127Z,23.60
2023-07-02T09:04:20.558Z,24.00
2023-07-02T09:06:51.100Z,24.00
2023-07-02T09:09:19.338Z,23.20
2023-07-02T09:11:51.669Z,22.60
2023-07-02T09:14:28.307Z,23.10
2023-07-02T09:17:07.514Z,23.60
2023-07-02T09:19:36.590Z,23.90
2023-07-02T09:22:06.649Z,23.60
2023-07-02T09:24:34.807Z,24.20
2023-07-02T09:27:04.071Z,24.70
2023-07-02T09:29:34.202Z,24.60
2023-07-02T09:32:10.157Z,24.40
2023-07-02T09:34:42.970Z,24.50
2023-07-02T09:37:12.871Z,24.60
2023-07-02T09:39:41.482Z,24.40
2023-07-02T09:42:11.136Z,24.80
2023-07-02T09:44:39.862Z,25.30
2023-07-02T09:47:09.813Z,25.20
2023-07-02T09:49:39.428Z,25.20
2023-07-02T09:52:09.356Z,25.30
2023-07-02T09:54:39.901Z,24.40
2023-07-02T09:57:08.746Z,23.40
2023-07-02T09:59:37.430Z,24.00
2023-07-02T10:02:06.195Z,23.90
2023-07-02T10:04:42.929Z,23.50
2023-07-02T10:07:11.289Z,23.90
2023-07-02T10:09:42.301Z,24.50
2023-07-02T10:12:23.877Z,25.10
2023-07-02T10:14:53.292Z,24.80
2023-07-02T10:17:29.826Z,24.00
2023-07-02T10:19:59.934Z,23.60
2023-07-02T10:22:28.461Z,23.50
2023-07-02T10:25:01.310Z,23.40
2023-07-02T10:27:37.007Z,23.20
2023-07-02T10:30:06.584Z,22.80
2023-07-02T10:32:36.548Z,22.30
2023-07-02T10:35:15.149Z,22.90
2023-07-02T10:37:43.442Z,23.20
2023-07-02T10:40:14.379Z,23.30
2023-07-02T10:42:49.736Z,23.80
2023-07-02T10:45:17.932Z,24.10
2023-07-02T10:47:46.491Z,24.10
2023-07-02T10:50:22.307Z,23.60
2023-07-02T10:52:52.342Z,23.90
2023-07-02T10:55:22.657Z,23.70
2023-07-02T10:57:52.328Z,23.70
2023-07-02T11:00:21.707Z,23.40
2023-07-02T11:02:50.817Z,23.40
2023-07-02T11:05:19.108Z,23.70
2023-07-02T11:07:47.355Z,23.50
2023-07-02T11:10:22.434Z,23.00
2023-07-02T11:12:50.593Z,23.00
2023-07-02T11:15:19.825Z,22.60
2023-07-02T11:17:48.232Z,23.60
2023-07-02T11:20:17.265Z,23.80
2023-07-02T11:22:45.463Z,24.30
2023-07-02T11:25:20.164Z,24.40
2023-07-02T11:27:49.797Z,24.30
2023-07-02T11:30:18.036Z,24.40
2023-07-02T11:32:53.409Z,24.20
2023-07-02T11:35:22.558Z,24.70
2023-07-02T11:37:51.249Z,24.50
2023-07-02T11:40:21.022Z,24.40
2023-07-02T11:42:50.592Z,24.00
2023-07-02T11:45:18.907Z,23.60
2023-07-02T11:47:47.177Z,23.70
2023-07-02T11:50:25.527Z,23.50
2023-07-02T11:52:54.926Z,23.90
2023-07-02T11:55:23.653Z,24.30
2023-07-02T11:57:53.384Z,25.10
2023-07-02T12:00:21.846Z,25.50
2023-07-02T12:02:51.023Z,25.60
2023-07-02T12:05:19.259Z,24.90
2023-07-02T12:07:47.460Z,25.30
2023-07-02T12:10:16.018Z,24.90
2023-07-02T12:12:44.186Z,25.30
2023-07-02T12:15:13.971Z,25.20
2023-07-02T12:17:42.120Z,25.50
2023-07-02T12:20:11.356Z,25.70
2023-07-02T12:22:39.596Z,25.90
2023-07-02T12:25:08.420Z,25.70
2023-07-02T12:27:36.582Z,25.90
2023-07-02T12:30:05.196Z,26.20
2023-07-02T12:32:35.292Z,26.00
2023-07-02T12:35:03.805Z,25.90
2023-07-02T12:37:34.298Z,25.70
2023-07-02T12:40:02.655Z,26.20
2023-07-02T12:42:30.885Z,26.70
2023-07-02T12:44:59.049Z,26.90
2023-07-02T12:47:27.366Z,27.20
2023-07-02T12:49:56.949Z,26.60
2023-07-02T12:52:25.104Z,25.90
2023-07-02T12:54:53.270Z,26.30
2023-07-02T12:57:21.517Z,26.70
2023-07-02T12:59:49.852Z,26.80
2023-07-02T13:02:18.113Z,25.70
2023-07-02T13:04:46.386Z,25.30
2023-07-02T13:07:16.236Z,26.40
2023-07-02T13:09:44.812Z,26.30
2023-07-02T13:12:13.454Z,25.90
2023-07-02T13:14:41.605Z,26.50
2023-07-02T13:17:09.740Z,27.00
2023-07-02T13:19:37.907Z,26.20
2023-07-02T13:22:06.660Z,27.00
2023-07-02T13:24:37.283Z,27.40
2023-07-02T13:27:09.285Z,27.80
2023-07-02T13:29:37.445Z,27.50
2023-07-02T13:32:06.331Z,27.10
2023-07-02T13:34:34.513Z,27.20
2023-07-02T13:37:04.068Z,28.10
2023-07-02T13:39:32.878Z,27.80
2023-07-02T13:42:02.420Z,28.00
2023-07-02T13:44:30.664Z,27.40
2023-07-02T13:46:58.949Z,27.70
2023-07-02T13:49:27.140Z,27.30
2023-07-02T13:51:55.342Z,27.10
2023-07-02T13:54:23.557Z,27.10
2023-07-02T13:56:51.725Z,26.80
2023-07-02T13:59:22.361Z,27.50
2023-07-02T14:01:51.152Z,27.70
2023-07-02T14:04:20.733Z,27.60
2023-07-02T14:06:49.048Z,27.60
2023-07-02T14:09:17.320Z,26.90
2023-07-02T14:11:45.726Z,26.00
2023-07-02T14:14:13.984Z,26.40
2023-07-02T14:16:43.733Z,26.70
2023-07-02T14:19:13.317Z,27.20
2023-07-02T14:21:41.457Z,26.60
2023-07-02T14:24:10.329Z,27.10
2023-07-02T14:26:38.540Z,27.10
2023-07-02T14:29:06.702Z,27.50
2023-07-02T14:31:34.964Z,27.60
2023-07-02T14:34:04.741Z,28.10
2023-07-02T14:36:33.036Z,28.00
2023-07-02T14:39:01.164Z,28.20
2023-07-02T14:41:31.868Z,28.20
2023-07-02T14:44:00.127Z,28.10
2023-07-02T14:46:28.386Z,27.70
2023-07-02T14:48:56.536Z,27.40
2023-07-02T14:51:26.432Z,27.30
2023-07-02T14:53:56.521Z,27.30
2023-07-02T14:56:25.171Z,26.50
2023-07-02T14:58:53.289Z,26.90
2023-07-02T15:01:21.776Z,27.00
2023-07-02T15:03:50.211Z,27.30
2023-07-02T15:06:20.150Z,26.90
2023-07-02T15:08:50.061Z,27.00
2023-07-02T15:11:19.429Z,27.00
2023-07-02T15:13:47.738Z,26.90
2023-07-02T15:16:18.596Z,27.10
2023-07-02T15:18:46.853Z,27.70
2023-07-02T15:21:15.618Z,27.60
2023-07-02T15:23:43.783Z,27.30
2023-07-02T15:26:13.408Z,26.30
2023-07-02T15:28:41.576Z,25.70
2023-07-02T15:31:12.216Z,26.30
2023-07-02T15:33:40.935Z,26.40
2023-07-02T15:36:10.737Z,26.40
2023-07-02T15:38:39.170Z,26.00
2023-07-02T15:41:13.823Z,26.10
2023-07-02T15:43:42.748Z,25.80
2023-07-02T15:46:11.955Z,25.80
2023-07-02T15:48:40.449Z,25.90
2023-07-02T15:51:10.001Z,26.20
2023-07-02T15:53:43.310Z,25.60
2023-07-02T15:56:13.170Z,25.30
2023-07-02T15:58:41.368Z,25.40
2023-07-02T16:01:14.367Z,25.40
2023-07-02T16:03:42.958Z,25.30
2023-07-02T16:06:12.677Z,25.10
2023-07-02T16:08:40.976Z,25.50
2023-07-02T16:11:10.582Z,25.60
2023-07-02T16:13:41.278Z,26.00
2023-07-02T16:16:10.167Z,26.00
2023-07-02T16:18:38.366Z,25.80
2023-07-02T16:21:07.949Z,25.40
2023-07-02T16:23:36.566Z,24.80
2023-07-02T16:26:06.696Z,24.80
2023-07-02T16:28:37.041Z,24.70
2023-07-02T16:31:08.814Z,24.40
2023-07-02T16:33:38.224Z,24.80
2023-07-02T16:36:08.725Z,25.30
2023-07-02T16:38:37.153Z,25.00
2023-07-02T16:41:06.981Z,25.20
2023-07-02T16:43:35.724Z,24.70
2023-07-02T16:46:04.147Z,24.80
2023-07-02T16:48:33.811Z,24.80
2023-07-02T16:51:03.690Z,24.80
2023-07-02T16:53:32.304Z,24.60
2023-07-02T16:56:01.457Z,24.40
2023-07-02T16:58:30.892Z,24.50
2023-07-02T17:01:03.451Z,24.70
2023-07-02T17:03:33.281Z,24.10
2023-07-02T17:06:03.030Z,24.20
2023-07-02T17:08:37.410Z,24.60
2023-07-02T17:11:06.467Z,24.70
2023-07-02T17:13:34.962Z,24.40
2023-07-02T17:16:03.322Z,24.40
2023-07-02T17:18:31.553Z,24.40
2023-07-02T17:21:01.179Z,24.30
2023-07-02T17:23:29.384Z,24.30
2023-07-02T17:26:02.561Z,24.30
2023-07-02T17:28:30.985Z,23.60
2023-07-02T17:31:01.027Z,23.70
2023-07-02T17:33:29.279Z,24.10
2023-07-02T17:35:57.448Z,23.60
2023-07-02T17:38:26.944Z,23.90
2023-07-02T17:40:55.143Z,23.90
2023-07-02T17:43:23.428Z,23.90
2023-07-02T17:45:55.593Z,23.90
2023-07-02T17:48:25.880Z,24.00
2023-07-02T17:50:57.803Z,23.90
2023-07-02T17:53:29.492Z,23.90
2023-07-02T17:55:57.759Z,24.00
2023-07-02T17:58:25.959Z,23.90
2023-07-02T18:00:54.550Z,23.60
2023-07-02T18:03:23.225Z,23.50
2023-07-02T18:05:51.864Z,23.20
2023-07-02T18:08:20.229Z,23.00
2023-07-02T18:10:51.399Z,22.80
2023-07-02T18:13:22.477Z,23.00
2023-07-02T18:15:51.873Z,23.10
2023-07-02T18:18:20.761Z,22.80
2023-07-02T18:20:50.579Z,22.60
2023-07-02T18:23:18.947Z,22.60
2023-07-02T18:25:47.672Z,22.60
2023-07-02T18:28:17.599Z,22.60
2023-07-02T18:30:47.734Z,22.60
2023-07-02T18:33:16.304Z,22.60
2023-07-02T18:35:46.374Z,22.40
2023-07-02T18:38:15.872Z,22.30
2023-07-02T18:40:44.408Z,22.30
2023-07-02T18:43:14.115Z,22.30
2023-07-02T18:45:43.641Z,22.20
2023-07-02T18:48:11.796Z,22.00
2023-07-02T18:50:40.639Z,21.90
2023-07-02T18:53:08.783Z,21.90
2023-07-02T18:55:36.962Z,21.60
2023-07-02T18:58:05.147Z,21.60
2023-07-02T19:00:33.315Z,21.50
2023-07-02T19:03:02.849Z,21.30
2023-07-02T19:05:31.068Z,21.30
2023-07-02T19:07:59.216Z,21.00
2023-07-02T19:10:27.364Z,21.00
2023-07-02T19:12:55.550Z,20.80
2023-07-02T19:15:23.946Z,20.80
2023-07-02T19:17:52.146Z,20.90
2023-07-02T19:20:22.083Z,20.50
2023-07-02T19:22:50.580Z,20.60
2023-07-02T19:25:18.894Z,20.20
2023-07-02T19:27:47.067Z,20.20
2023-07-02T19:30:15.625Z,20.20
2023-07-02T19:32:43.885Z,20.10
2023-07-02T19:35:13.128Z,20.00
2023-07-02T19:37:42.752Z,19.80
2023-07-02T19:40:12.138Z,19.80
2023-07-02T19:42:40.416Z,19.80
2023-07-02T19:45:09.505Z,19.80
2023-07-02T19:47:37.822Z,19.80
2023-07-02T19:50:06.858Z,19.60
2023-07-02T19:52:35.423Z,19.50
2023-07-02T19:55:11.809Z,19.40
2023-07-02T19:57:40.090Z,19.50
2023-07-02T20:00:11.960Z,19.50
2023-07-02T20:02:41.993Z,19.50
2023-07-02T20:05:11.635Z,19.50
2023-07-02T20:07:39.954Z,19.30
2023-07-02T20:10:10.572Z,19.30
2023-07-02T20:12:38.751Z,19.20
2023-07-02T20:15:08.826Z,19.00
2023-07-02T20:17:37.730Z,19.10
2023-07-02T20:20:09.758Z,19.00
2023-07-02T20:22:38.004Z,19.00
2023-07-02T20:25:35.678Z,19.00
2023-07-02T20:27:56.758Z,19.10
2023-07-02T20:30:24.964Z,18.90
2023-07-02T20:32:53.289Z,18.80
2023-07-02T20:35:21.534Z,18.80
2023-07-02T20:37:52.465Z,18.90
2023-07-02T20:40:20.916Z,18.80
2023-07-02T20:42:49.074Z,18.60
2023-07-02T20:45:18.784Z,18.70
2023-07-02T20:47:47.119Z,18.50
2023-07-02T20:50:16.992Z,18.50
2023-07-02T20:52:46.107Z,18.50
2023-07-02T20:55:14.460Z,18.60
2023-07-02T20:57:42.584Z,18.60
2023-07-02T21:00:12.795Z,18.40
2023-07-02T21:02:43.258Z,18.30
2023-07-02T21:05:14.192Z,18.30
2023-07-02T21:07:42.622Z,18.20
2023-07-02T21:10:11.239Z,18.20
2023-07-02T21:12:39.437Z,18.10
2023-07-02T21:15:08.833Z,18.00
2023-07-02T21:17:37.004Z,18.00
2023-07-02T21:20:07.580Z,18.10
2023-07-02T21:22:36.938Z,17.90
2023-07-02T21:25:05.450Z,17.90
2023-07-02T21:27:35.381Z,17.80
2023-07-02T21:30:04.015Z,17.90
2023-07-02T21:32:32.341Z,17.80
2023-07-02T21:35:02.360Z,17.70
2023-07-02T21:37:31.932Z,17.60
2023-07-02T21:40:02.597Z,17.70
2023-07-02T21:42:30.721Z,17.60
2023-07-02T21:44:58.898Z,17.60
2023-07-02T21:47:30.478Z,17.60
2023-07-02T21:49:58.826Z,17.50
2023-07-02T21:52:29.236Z,17.40
2023-07-02T21:54:58.818Z,17.40
2023-07-02T21:57:29.343Z,17.40
2023-07-02T21:59:57.782Z,17.30
2023-07-02T22:02:25.940Z,17.30
2023-07-02T22:04:54.439Z,17.20
2023-07-02T22:07:23.515Z,17.10
2023-07-02T22:09:51.654Z,17.10
2023-07-02T22:12:21.188Z,17.10
2023-07-02T22:14:49.325Z,17.10
2023-07-02T22:17:17.625Z,17.10
2023-07-02T22:19:47.748Z,17.00
2023-07-02T22:22:16.228Z,17.00
2023-07-02T22:24:46.947Z,17.00
2023-07-02T22:27:15.490Z,16.90
2023-07-02T22:29:45.052Z,16.90
2023-07-02T22:32:13.343Z,16.70
2023-07-02T22:34:41.492Z,16.80
2023-07-02T22:37:09.686Z,16.80
2023-07-02T22:39:37.941Z,16.80
2023-07-02T22:42:06.878Z,16.80
2023-07-02T22:44:35.052Z,16.80
2023-07-02T22:47:04.717Z,16.80
2023-07-02T22:49:33.690Z,16.80
2023-07-02T22:52:03.647Z,16.60
2023-07-02T22:54:32.092Z,16.70
2023-07-02T22:57:00.687Z,16.80
2023-07-02T22:59:29.372Z,16.70
2023-07-02T23:01:58.126Z,16.70
2023-07-02T23:04:27.707Z,16.80
2023-07-02T23:06:56.215Z,16.80
2023-07-02T23:09:24.409Z,16.70
2023-07-02T23:11:52.527Z,16.80
2023-07-02T23:14:20.631Z,16.80
2023-07-02T23:16:48.853Z,16.70
2023-07-02T23:19:17.386Z,16.70
2023-07-02T23:21:48.659Z,16.80
2023-07-02T23:24:17.854Z,16.70
2023-07-02T23:26:46.213Z,16.60
2023-07-02T23:29:21.072Z,16.60
2023-07-02T23:31:50.265Z,16.60
2023-07-02T23:34:19.471Z,16.60
2023-07-02T23:36:48.997Z,16.60
2023-07-02T23:39:17.798Z,16.60
2023-07-02T23:41:45.955Z,16.60
2023-07-02T23:44:14.438Z,16.60
2023-07-02T23:46:43.041Z,16.60
2023-07-02T23:49:11.632Z,16.50
2023-07-02T23:51:39.763Z,16.50
2023-07-02T23:54:09.329Z,16.60
2023-07-02T23:56:37.476Z,16.50
2023-07-02T23:59:05.579Z,16.50
